createdAt,value
2022-07-29T00:02:13.802Z,7.17
2022-07-29T00:04:43.000Z,8.17
2022-07-29T00:07:10.792Z,7.20
2022-07-29T00:09:50.685Z,7.60
2022-07-29T00:12:21.463Z,7.70
2022-07-29T00:14:53.734Z,7.57
2022-07-29T00:17:21.529Z,7.83
2022-07-29T00:19:50.685Z,7.23
2022-07-29T00:22:18.542Z,7.20
2022-07-29T00:24:46.371Z,6.80
2022-07-29T00:27:14.065Z,7.60
2022-07-29T00:29:41.770Z,7.50
2022-07-29T00:32:09.567Z,7.80
2022-07-29T00:34:54.624Z,7.70
2022-07-29T00:37:23.767Z,7.40
2022-07-29T00:39:51.537Z,7.63
2022-07-29T00:42:19.284Z,7.10
2022-07-29T00:44:47.043Z,7.60
2022-07-29T00:47:15.024Z,7.60
2022-07-29T00:49:43.681Z,7.80
2022-07-29T00:52:12.689Z,7.50
2022-07-29T00:54:46.323Z,7.40
2022-07-29T00:57:14.815Z,7.53
2022-07-29T00:59:42.595Z,7.10
2022-07-29T01:02:10.435Z,7.33
2022-07-29T01:04:38.298Z,6.93
2022-07-29T01:07:06.603Z,6.67
2022-07-29T01:09:45.500Z,7.50
2022-07-29T01:12:19.403Z,6.70
2022-07-29T01:14:48.844Z,6.40
2022-07-29T01:17:25.099Z,7.53
2022-07-29T01:20:00.134Z,6.90
2022-07-29T01:22:37.378Z,6.57
2022-07-29T01:25:20.076Z,6.30
2022-07-29T01:28:08.983Z,6.80
2022-07-29T01:30:44.068Z,5.80
2022-07-29T01:33:37.337Z,6.40
2022-07-29T01:36:11.467Z,6.27
2022-07-29T01:38:41.470Z,6.53
2022-07-29T01:41:12.982Z,6.73
2022-07-29T01:43:45.911Z,6.10
2022-07-29T01:46:22.066Z,6.20
2022-07-29T01:48:55.528Z,6.40
2022-07-29T01:51:28.232Z,5.70
2022-07-29T01:53:59.637Z,6.23
2022-07-29T01:56:31.855Z,6.40
2022-07-29T01:59:00.605Z,5.83
2022-07-29T02:01:33.163Z,6.87
2022-07-29T02:04:03.777Z,6.30
2022-07-29T02:06:34.337Z,6.53
2022-07-29T02:09:04.329Z,6.27
2022-07-29T02:11:39.176Z,6.40
2022-07-29T02:14:08.359Z,5.80
2022-07-29T02:16:41.411Z,5.80
2022-07-29T02:19:10.746Z,6.13
2022-07-29T02:21:39.706Z,6.00
2022-07-29T02:24:09.418Z,5.27
2022-07-29T02:26:38.172Z,6.27
2022-07-29T02:29:06.673Z,6.43
2022-07-29T02:31:38.476Z,6.27
2022-07-29T02:34:10.182Z,6.57
2022-07-29T02:36:39.008Z,6.10
2022-07-29T02:39:07.449Z,5.90
2022-07-29T02:41:44.117Z,5.30
2022-07-29T02:44:14.344Z,5.30
2022-07-29T02:46:50.059Z,5.77
2022-07-29T02:49:21.257Z,5.37
2022-07-29T02:51:55.034Z,5.80
2022-07-29T02:54:31.759Z,6.30
2022-07-29T02:57:02.899Z,6.23
2022-07-29T02:59:36.578Z,6.33
2022-07-29T03:02:07.986Z,5.80
2022-07-29T03:04:36.870Z,5.87
2022-07-29T03:07:07.165Z,5.90
2022-07-29T03:09:36.081Z,5.50
2022-07-29T03:12:06.570Z,5.80
2022-07-29T03:14:34.754Z,5.70
2022-07-29T03:17:02.796Z,5.97
2022-07-29T03:19:31.918Z,5.60
2022-07-29T03:22:00.170Z,5.63
2022-07-29T03:24:29.893Z,5.00
2022-07-29T03:26:58.755Z,5.80
2022-07-29T03:29:33.462Z,5.30
2022-07-29T03:32:03.606Z,5.77
2022-07-29T03:34:37.498Z,5.20
2022-07-29T03:37:05.736Z,5.53
2022-07-29T03:39:37.152Z,5.80
2022-07-29T03:42:08.804Z,5.60
2022-07-29T03:44:38.147Z,5.80
2022-07-29T03:47:08.859Z,5.90
2022-07-29T03:49:39.774Z,5.17
2022-07-29T03:52:08.052Z,5.97
2022-07-29T03:54:36.043Z,5.47
2022-07-29T03:57:05.503Z,5.70
2022-07-29T03:59:34.951Z,5.60
2022-07-29T04:02:04.827Z,5.33
2022-07-29T04:04:34.924Z,5.60
2022-07-29T04:07:07.096Z,5.60
2022-07-29T04:09:34.855Z,5.60
2022-07-29T04:12:04.329Z,5.37
2022-07-29T04:14:32.872Z,5.80
2022-07-29T04:17:00.611Z,5.50
2022-07-29T04:19:28.673Z,6.10
2022-07-29T04:21:56.427Z,6.13
2022-07-29T04:24:25.718Z,5.67
2022-07-29T04:26:53.720Z,5.47
2022-07-29T04:29:21.655Z,5.20
2022-07-29T04:31:49.443Z,5.43
2022-07-29T04:34:17.529Z,5.60
2022-07-29T04:36:45.647Z,5.53
2022-07-29T04:39:15.369Z,5.40
2022-07-29T04:41:48.169Z,5.00
2022-07-29T04:44:16.271Z,5.40
2022-07-29T04:46:45.049Z,5.30
2022-07-29T04:49:12.956Z,5.07
2022-07-29T04:51:40.780Z,5.57
2022-07-29T04:54:08.463Z,5.60
2022-07-29T04:56:36.162Z,5.20
2022-07-29T04:59:05.269Z,5.40
2022-07-29T05:01:33.039Z,5.70
2022-07-29T05:04:00.959Z,4.63
2022-07-29T05:06:28.865Z,4.50
2022-07-29T05:08:56.674Z,4.63
2022-07-29T05:11:28.637Z,4.90
2022-07-29T05:13:58.224Z,4.50
2022-07-29T05:16:27.692Z,4.63
2022-07-29T05:18:55.544Z,4.50
2022-07-29T05:21:23.298Z,4.70
2022-07-29T05:23:51.265Z,5.27
2022-07-29T05:26:19.131Z,4.30
2022-07-29T05:28:46.875Z,4.20
2022-07-29T05:31:15.569Z,4.20
2022-07-29T05:33:44.786Z,3.60
2022-07-29T05:36:12.801Z,3.00
2022-07-29T05:38:40.788Z,3.60
2022-07-29T05:41:08.627Z,3.70
2022-07-29T05:43:36.326Z,3.10
2022-07-29T05:46:04.254Z,3.37
2022-07-29T05:48:32.245Z,3.60
2022-07-29T05:51:01.384Z,3.70
2022-07-29T05:53:29.390Z,3.77
2022-07-29T05:55:57.510Z,3.00
2022-07-29T05:58:25.256Z,4.10
2022-07-29T06:00:53.825Z,3.97
2022-07-29T06:03:21.568Z,3.97
2022-07-29T06:05:49.284Z,4.10
2022-07-29T06:08:18.644Z,3.70
2022-07-29T06:10:47.249Z,3.80
2022-07-29T06:13:16.898Z,3.80
2022-07-29T06:15:44.860Z,3.77
2022-07-29T06:18:14.321Z,4.47
2022-07-29T06:20:42.110Z,4.07
2022-07-29T06:23:10.929Z,4.40
2022-07-29T06:25:41.883Z,4.27
2022-07-29T06:28:09.650Z,4.07
2022-07-29T06:30:37.558Z,3.93
2022-07-29T06:33:05.735Z,3.87
2022-07-29T06:35:41.863Z,4.10
2022-07-29T06:38:25.656Z,4.07
2022-07-29T06:41:04.688Z,4.87
2022-07-29T06:43:34.893Z,4.20
2022-07-29T06:46:04.283Z,4.70
2022-07-29T06:48:32.659Z,4.80
2022-07-29T06:51:01.319Z,5.30
2022-07-29T06:53:29.687Z,4.67
2022-07-29T06:55:59.122Z,4.73
2022-07-29T06:58:29.184Z,4.90
2022-07-29T07:00:57.824Z,5.60
2022-07-29T07:03:26.159Z,5.67
2022-07-29T07:05:54.987Z,4.70
2022-07-29T07:08:24.534Z,5.13
2022-07-29T07:10:52.424Z,4.80
2022-07-29T07:13:20.428Z,5.03
2022-07-29T07:15:49.770Z,4.80
2022-07-29T07:18:18.028Z,5.93
2022-07-29T07:20:46.099Z,5.43
2022-07-29T07:23:13.777Z,5.37
2022-07-29T07:25:41.558Z,4.50
2022-07-29T07:28:09.395Z,4.53
2022-07-29T07:30:37.230Z,5.17
2022-07-29T07:33:06.645Z,5.10
2022-07-29T07:35:35.447Z,4.90
2022-07-29T07:38:03.302Z,5.03
2022-07-29T07:40:31.078Z,4.77
2022-07-29T07:42:58.831Z,4.57
2022-07-29T07:45:26.686Z,5.07
2022-07-29T07:47:54.533Z,5.37
2022-07-29T07:50:23.623Z,5.47
2022-07-29T07:52:53.698Z,4.67
2022-07-29T07:55:22.167Z,5.13
2022-07-29T07:57:50.163Z,4.50
2022-07-29T08:00:18.487Z,4.53
2022-07-29T08:02:47.060Z,4.87
2022-07-29T08:05:18.003Z,4.67
2022-07-29T08:07:48.743Z,4.87
2022-07-29T08:10:37.561Z,4.50
2022-07-29T08:13:05.854Z,4.80
2022-07-29T08:15:34.121Z,5.97
2022-07-29T08:18:06.554Z,5.17
2022-07-29T08:20:37.312Z,4.87
2022-07-29T08:23:09.445Z,4.67
2022-07-29T08:25:38.642Z,4.63
2022-07-29T08:28:07.929Z,5.13
2022-07-29T08:30:36.236Z,5.43
2022-07-29T08:33:04.377Z,4.80
2022-07-29T08:35:35.247Z,4.90
2022-07-29T08:38:04.429Z,5.30
2022-07-29T08:40:33.620Z,5.07
2022-07-29T08:43:06.895Z,4.80
2022-07-29T08:45:47.736Z,4.70
2022-07-29T08:48:17.536Z,5.40
2022-07-29T08:50:47.139Z,4.90
2022-07-29T08:53:17.077Z,5.07
2022-07-29T08:55:48.565Z,5.30
2022-07-29T08:58:16.924Z,4.93
2022-07-29T09:00:47.675Z,5.23
2022-07-29T09:03:19.914Z,4.60
2022-07-29T09:05:48.559Z,5.30
2022-07-29T09:08:16.805Z,4.97
2022-07-29T09:10:46.477Z,4.70
2022-07-29T09:13:14.278Z,5.50
2022-07-29T09:15:42.152Z,5.20
2022-07-29T09:18:20.513Z,4.93
2022-07-29T09:21:14.857Z,5.17
2022-07-29T09:23:44.565Z,5.20
2022-07-29T09:26:13.631Z,5.20
2022-07-29T09:28:45.344Z,5.27
2022-07-29T09:31:13.177Z,5.50
2022-07-29T09:33:42.970Z,5.47
2022-07-29T09:36:12.435Z,5.87
2022-07-29T09:38:40.244Z,5.40
2022-07-29T09:41:09.094Z,5.20
2022-07-29T09:43:38.175Z,4.90
2022-07-29T09:46:13.364Z,5.80
2022-07-29T09:48:41.425Z,5.53
2022-07-29T09:51:22.131Z,5.90
2022-07-29T09:53:52.888Z,5.80
2022-07-29T09:56:21.451Z,5.90
2022-07-29T09:59:07.983Z,5.30
2022-07-29T10:01:36.868Z,6.10
2022-07-29T10:04:05.291Z,5.10
2022-07-29T10:06:33.019Z,5.73
2022-07-29T10:09:10.362Z,6.03
2022-07-29T10:11:48.845Z,5.83
2022-07-29T10:14:19.919Z,6.13
2022-07-29T10:16:47.725Z,7.07
2022-07-29T10:19:16.171Z,5.53
2022-07-29T10:21:45.779Z,5.73
2022-07-29T10:24:14.702Z,6.13
2022-07-29T10:26:43.576Z,5.87
2022-07-29T10:29:11.390Z,8.00
2022-07-29T10:31:49.197Z,5.77
2022-07-29T10:34:25.909Z,6.03
2022-07-29T10:37:05.857Z,6.00
2022-07-29T10:39:49.764Z,6.93
2022-07-29T10:42:29.662Z,6.80
2022-07-29T10:45:02.822Z,7.07
2022-07-29T10:47:35.180Z,6.90
2022-07-29T10:50:05.251Z,7.60
2022-07-29T10:52:58.530Z,9.53
2022-07-29T10:55:39.250Z,11.97
2022-07-29T10:58:16.048Z,10.70
2022-07-29T11:00:46.829Z,11.20
2022-07-29T11:03:50.468Z,7.13
2022-07-29T11:06:26.154Z,9.70
2022-07-29T11:09:20.329Z,11.07
2022-07-29T11:11:53.331Z,12.00
2022-07-29T11:14:41.281Z,14.20
2022-07-29T11:17:09.435Z,13.10
2022-07-29T11:19:50.998Z,12.83
2022-07-29T11:22:34.596Z,13.43
2022-07-29T11:25:16.697Z,12.93
2022-07-29T11:27:46.321Z,12.47
2022-07-29T11:30:15.894Z,13.47
2022-07-29T11:32:48.741Z,11.37
2022-07-29T11:38:31.679Z,12.90
2022-07-29T11:41:21.985Z,12.43
2022-07-29T11:43:52.140Z,11.60
2022-07-29T11:46:35.548Z,12.87
2022-07-29T11:49:04.816Z,12.10
2022-07-29T11:51:48.177Z,12.10
2022-07-29T11:54:19.057Z,11.40
2022-07-29T11:56:55.897Z,11.57
2022-07-29T11:59:33.487Z,10.03
2022-07-29T12:02:36.572Z,9.17
2022-07-29T12:04:55.249Z,8.07
2022-07-29T12:07:34.638Z,9.80
2022-07-29T12:10:03.422Z,8.23
2022-07-29T12:12:31.276Z,8.83
2022-07-29T12:14:59.022Z,7.33
2022-07-29T12:17:30.634Z,8.23
2022-07-29T12:19:59.917Z,7.20
2022-07-29T12:22:29.948Z,6.33
2022-07-29T12:25:11.511Z,5.93
2022-07-29T12:27:48.865Z,5.43
2022-07-29T12:30:18.610Z,6.13
2022-07-29T12:32:47.676Z,6.90
2022-07-29T12:35:18.184Z,6.50
2022-07-29T12:37:52.504Z,6.90
2022-07-29T12:40:23.906Z,7.90
2022-07-29T12:43:11.788Z,7.23
2022-07-29T12:45:40.195Z,7.30
2022-07-29T12:48:09.568Z,7.20
2022-07-29T12:50:38.362Z,6.60
2022-07-29T12:53:14.755Z,7.27
2022-07-29T12:55:49.831Z,7.00
2022-07-29T12:58:29.153Z,6.50
2022-07-29T13:01:17.305Z,6.60
2022-07-29T13:03:57.201Z,7.93
2022-07-29T13:06:41.383Z,8.00
2022-07-29T13:09:14.467Z,7.97
2022-07-29T13:11:48.366Z,8.40
2022-07-29T13:14:32.031Z,8.00
2022-07-29T13:17:05.002Z,6.73
2022-07-29T13:19:38.379Z,7.77
2022-07-29T13:22:06.782Z,7.20
2022-07-29T13:24:36.194Z,7.17
2022-07-29T13:27:05.678Z,7.47
2022-07-29T13:29:34.115Z,8.40
2022-07-29T13:32:01.960Z,8.00
2022-07-29T13:34:29.824Z,7.83
2022-07-29T13:36:57.751Z,8.70
2022-07-29T13:39:25.488Z,8.20
2022-07-29T13:41:54.857Z,8.70
2022-07-29T13:44:24.167Z,7.67
2022-07-29T13:46:52.011Z,8.40
2022-07-29T13:49:19.760Z,9.20
2022-07-29T13:51:47.587Z,10.10
2022-07-29T13:54:15.327Z,8.70
2022-07-29T13:56:43.087Z,8.20
2022-07-29T13:59:12.198Z,8.50
2022-07-29T14:01:43.135Z,8.53
2022-07-29T14:04:12.254Z,8.80
2022-07-29T14:06:40.610Z,9.03
2022-07-29T14:09:09.620Z,9.80
2022-07-29T14:11:39.342Z,8.50
2022-07-29T14:14:07.196Z,9.47
2022-07-29T14:16:40.452Z,9.47
2022-07-29T14:19:10.997Z,8.90
2022-07-29T14:21:39.449Z,9.50
2022-07-29T14:24:17.069Z,9.93
2022-07-29T14:26:46.363Z,9.60
2022-07-29T14:29:14.555Z,10.23
2022-07-29T14:31:44.872Z,9.87
2022-07-29T14:34:12.801Z,9.70
2022-07-29T14:36:40.666Z,9.40
2022-07-29T14:39:08.684Z,8.87
2022-07-29T14:41:36.677Z,9.83
2022-07-29T14:44:05.006Z,9.27
2022-07-29T14:46:33.085Z,8.87
2022-07-29T14:49:02.380Z,10.87
2022-07-29T14:51:32.458Z,9.30
2022-07-29T14:54:00.822Z,9.07
2022-07-29T14:56:46.321Z,8.40
2022-07-29T14:59:14.972Z,8.80
2022-07-29T15:01:42.735Z,7.57
2022-07-29T15:04:11.935Z,9.00
2022-07-29T15:06:39.880Z,9.17
2022-07-29T15:09:07.773Z,8.43
2022-07-29T15:11:38.510Z,8.20
2022-07-29T15:14:06.820Z,9.40
2022-07-29T15:16:34.795Z,9.13
2022-07-29T15:19:03.024Z,7.63
2022-07-29T15:21:32.169Z,8.13
2022-07-29T15:23:59.996Z,8.90
2022-07-29T15:26:28.083Z,8.60
2022-07-29T15:28:56.517Z,9.40
2022-07-29T15:31:24.363Z,10.10
2022-07-29T15:33:55.692Z,9.27
2022-07-29T15:36:50.649Z,8.73
2022-07-29T15:39:24.642Z,9.13
2022-07-29T15:41:52.693Z,9.20
2022-07-29T15:44:21.122Z,8.97
2022-07-29T15:47:08.120Z,8.60
2022-07-29T15:49:48.433Z,8.60
2022-07-29T15:52:17.680Z,9.40
2022-07-29T15:54:47.033Z,9.17
2022-07-29T15:57:14.867Z,9.40
2022-07-29T15:59:42.593Z,10.33
2022-07-29T16:02:11.141Z,9.87
2022-07-29T16:04:39.020Z,8.87
2022-07-29T16:07:07.000Z,9.20
2022-07-29T16:09:34.763Z,9.17
2022-07-29T16:12:05.255Z,9.20
2022-07-29T16:14:43.160Z,9.37
2022-07-29T16:17:15.035Z,9.63
2022-07-29T16:19:43.715Z,9.43
2022-07-29T16:22:11.890Z,8.70
2022-07-29T16:24:39.752Z,9.77
2022-07-29T16:27:09.293Z,8.60
2022-07-29T16:29:37.788Z,8.40
2022-07-29T16:32:06.785Z,9.07
2022-07-29T16:34:34.792Z,10.30
2022-07-29T16:37:03.030Z,9.70
2022-07-29T16:39:31.258Z,10.00
2022-07-29T16:42:01.537Z,9.23
2022-07-29T16:44:32.381Z,9.80
2022-07-29T16:47:00.473Z,8.73
2022-07-29T16:49:28.551Z,8.97
2022-07-29T16:51:56.365Z,9.73
2022-07-29T16:54:24.269Z,9.10
2022-07-29T16:56:52.911Z,8.90
2022-07-29T16:59:20.825Z,8.60
2022-07-29T17:01:50.127Z,8.87
2022-07-29T17:04:18.089Z,8.30
2022-07-29T17:06:45.892Z,9.10
2022-07-29T17:09:15.073Z,9.20
2022-07-29T17:11:53.865Z,9.87
2022-07-29T17:14:24.854Z,9.63
2022-07-29T17:17:02.632Z,8.70
2022-07-29T17:19:33.711Z,9.20
2022-07-29T17:22:19.443Z,8.57
2022-07-29T17:24:48.350Z,8.53
2022-07-29T17:27:16.994Z,9.07
2022-07-29T17:29:45.299Z,8.50
2022-07-29T17:32:14.834Z,9.30
2022-07-29T17:34:43.477Z,9.57
2022-07-29T17:37:13.942Z,9.23
2022-07-29T17:39:43.156Z,10.70
2022-07-29T17:42:12.736Z,9.27
2022-07-29T17:44:41.327Z,8.77
2022-07-29T17:47:15.729Z,7.87
2022-07-29T17:49:45.834Z,8.03
2022-07-29T17:52:13.816Z,8.30
2022-07-29T17:54:41.613Z,8.50
2022-07-29T17:57:09.351Z,8.37
2022-07-29T17:59:37.117Z,8.87
2022-07-29T18:02:05.002Z,9.00
2022-07-29T18:04:32.811Z,9.40
2022-07-29T18:07:02.130Z,9.47
2022-07-29T18:09:30.042Z,8.50
2022-07-29T18:11:57.956Z,8.43
2022-07-29T18:14:25.738Z,8.10
2022-07-29T18:16:53.766Z,8.33
2022-07-29T18:19:21.788Z,8.97
2022-07-29T18:21:54.742Z,8.50
2022-07-29T18:24:27.575Z,7.60
2022-07-29T18:26:56.590Z,8.67
2022-07-29T18:29:24.634Z,8.60
2022-07-29T18:31:52.393Z,7.80
2022-07-29T18:34:20.141Z,7.73
2022-07-29T18:36:47.810Z,8.33
2022-07-29T18:39:21.198Z,8.60
2022-07-29T18:41:51.595Z,9.53
2022-07-29T18:44:21.810Z,8.30
2022-07-29T18:46:50.443Z,9.10
2022-07-29T18:49:18.366Z,9.47
2022-07-29T18:51:46.117Z,9.33
2022-07-29T18:54:13.872Z,9.67
2022-07-29T18:56:41.792Z,9.33
2022-07-29T18:59:11.572Z,8.47
2022-07-29T19:01:39.351Z,8.80
2022-07-29T19:04:07.389Z,7.13
2022-07-29T19:06:35.123Z,7.50
2022-07-29T19:09:02.853Z,8.63
2022-07-29T19:11:30.589Z,8.67
2022-07-29T19:13:58.326Z,8.30
2022-07-29T19:16:27.581Z,8.87
2022-07-29T19:18:55.730Z,8.40
2022-07-29T19:21:25.387Z,8.63
2022-07-29T19:24:05.896Z,8.30
2022-07-29T19:26:36.504Z,7.30
2022-07-29T19:29:05.010Z,7.83
2022-07-29T19:31:34.208Z,7.77
2022-07-29T19:34:02.048Z,7.43
2022-07-29T19:36:31.262Z,8.33
2022-07-29T19:39:00.037Z,7.63
2022-07-29T19:41:28.367Z,8.07
2022-07-29T19:43:56.218Z,7.97
2022-07-29T19:46:25.099Z,7.10
2022-07-29T19:48:54.385Z,7.50
2022-07-29T19:51:22.488Z,8.10
2022-07-29T19:53:50.586Z,8.87
2022-07-29T19:56:18.325Z,9.50
2022-07-29T19:58:47.173Z,8.20
2022-07-29T20:01:16.658Z,8.00
2022-07-29T20:03:44.737Z,7.50
2022-07-29T20:06:14.035Z,7.60
2022-07-29T20:08:41.788Z,8.60
2022-07-29T20:11:09.649Z,8.60
2022-07-29T20:13:37.593Z,7.57
2022-07-29T20:16:08.104Z,8.30
2022-07-29T20:18:36.091Z,8.43
2022-07-29T20:21:04.750Z,8.00
2022-07-29T20:23:34.141Z,6.63
2022-07-29T20:26:02.852Z,7.03
2022-07-29T20:28:31.295Z,8.30
2022-07-29T20:30:59.159Z,8.73
2022-07-29T20:33:26.916Z,8.80
2022-07-29T20:35:55.355Z,7.40
2022-07-29T20:38:23.123Z,8.30
2022-07-29T20:40:54.014Z,7.30
2022-07-29T20:43:21.680Z,7.47
2022-07-29T20:45:49.847Z,6.97
2022-07-29T20:48:17.859Z,5.77
2022-07-29T20:50:47.537Z,7.43
2022-07-29T20:53:16.617Z,6.47
2022-07-29T20:55:44.615Z,5.77
2022-07-29T20:58:14.289Z,6.50
2022-07-29T21:00:42.072Z,7.17
2022-07-29T21:03:10.016Z,7.40
2022-07-29T21:05:38.044Z,7.30
2022-07-29T21:08:06.797Z,6.00
2022-07-29T21:10:34.550Z,6.80
2022-07-29T21:13:02.534Z,8.20
2022-07-29T21:15:32.581Z,7.23
2022-07-29T21:18:03.087Z,7.27
2022-07-29T21:20:31.032Z,7.23
2022-07-29T21:22:59.107Z,6.43
2022-07-29T21:25:28.298Z,7.20
2022-07-29T21:28:13.546Z,6.20
2022-07-29T21:30:42.750Z,5.83
2022-07-29T21:33:10.617Z,5.10
2022-07-29T21:36:14.990Z,5.67
2022-07-29T21:38:26.117Z,6.67
2022-07-29T21:40:53.874Z,7.60
2022-07-29T21:43:22.000Z,7.10
2022-07-29T21:45:51.388Z,7.40
2022-07-29T21:48:19.553Z,7.10
2022-07-29T21:50:48.736Z,5.60
2022-07-29T21:53:17.587Z,6.20
2022-07-29T21:55:50.546Z,6.13
2022-07-29T21:58:19.161Z,6.60
2022-07-29T22:00:46.920Z,5.90
2022-07-29T22:03:16.567Z,6.50
2022-07-29T22:05:45.173Z,5.73
2022-07-29T22:08:13.526Z,5.83
2022-07-29T22:10:41.301Z,6.10
2022-07-29T22:13:09.105Z,6.10
2022-07-29T22:15:37.054Z,6.03
2022-07-29T22:18:05.142Z,6.17
2022-07-29T22:20:34.405Z,5.80
2022-07-29T22:23:02.580Z,5.37
2022-07-29T22:25:30.473Z,6.50
2022-07-29T22:27:58.190Z,5.40
2022-07-29T22:30:26.072Z,5.30
2022-07-29T22:32:53.911Z,6.10
2022-07-29T22:35:21.628Z,5.63
2022-07-29T22:37:51.110Z,5.90
2022-07-29T22:40:18.840Z,5.70
2022-07-29T22:42:46.560Z,5.70
2022-07-29T22:45:14.280Z,6.23
2022-07-29T22:47:48.161Z,5.93
2022-07-29T22:50:16.335Z,5.27
2022-07-29T22:52:44.092Z,5.10
2022-07-29T22:55:13.531Z,5.53
2022-07-29T22:57:41.351Z,5.63
2022-07-29T23:00:10.600Z,5.23
2022-07-29T23:02:38.396Z,5.70
2022-07-29T23:05:06.803Z,5.33
2022-07-29T23:07:34.565Z,5.10
2022-07-29T23:10:02.446Z,5.80
2022-07-29T23:12:31.540Z,4.80
2022-07-29T23:14:59.302Z,4.60
2022-07-29T23:17:27.052Z,5.20
2022-07-29T23:19:54.812Z,4.67
2022-07-29T23:22:22.574Z,5.00
2022-07-29T23:24:50.301Z,4.43
2022-07-29T23:27:18.071Z,5.20
2022-07-29T23:29:47.095Z,5.43
2022-07-29T23:32:14.855Z,4.60
2022-07-29T23:34:42.550Z,4.53
2022-07-29T23:37:10.350Z,5.37
2022-07-29T23:39:38.149Z,5.03
2022-07-29T23:42:05.924Z,5.13
2022-07-29T23:44:33.670Z,5.23
2022-07-29T23:47:03.196Z,4.30
2022-07-29T23:49:31.309Z,5.00
2022-07-29T23:51:59.125Z,5.33
2022-07-29T23:54:26.872Z,6.00
2022-07-29T23:56:56.655Z,5.60
2022-07-29T23:59:24.515Z,5.33
